createdAt,value
2023-01-22T00:00:37.640Z,0.00
2023-01-22T00:03:13.280Z,0.00
2023-01-22T00:05:42.938Z,0.00
2023-01-22T00:08:12.660Z,0.00
2023-01-22T00:10:40.970Z,0.00
2023-01-22T00:13:09.941Z,0.00
2023-01-22T00:15:40.617Z,0.00
2023-01-22T00:18:13.334Z,0.10
2023-01-22T00:20:42.983Z,0.00
2023-01-22T00:23:14.783Z,0.00
2023-01-22T00:25:46.405Z,0.00
2023-01-22T00:31:42.188Z,0.00
2023-01-22T00:34:15.367Z,0.00
2023-01-22T00:36:44.947Z,0.00
2023-01-22T00:39:16.436Z,-0.10
2023-01-22T00:41:44.965Z,-0.10
2023-01-22T00:44:14.781Z,0.00
2023-01-22T00:46:43.057Z,0.00
2023-01-22T00:49:13.715Z,0.00
2023-01-22T00:51:42.143Z,0.00
2023-01-22T00:54:10.684Z,0.00
2023-01-22T00:56:39.060Z,0.00
2023-01-22T00:59:10.501Z,0.00
2023-01-22T01:01:39.469Z,0.00
2023-01-22T01:04:08.792Z,0.00
2023-01-22T01:06:38.370Z,0.00
2023-01-22T01:09:07.410Z,0.00
2023-01-22T01:11:35.634Z,0.10
2023-01-22T01:14:03.950Z,0.00
2023-01-22T01:16:33.802Z,0.00
2023-01-22T01:19:02.928Z,0.00
2023-01-22T01:21:32.190Z,0.00
2023-01-22T01:24:02.303Z,0.00
2023-01-22T01:26:35.847Z,0.00
2023-01-22T01:29:06.689Z,0.10
2023-01-22T01:31:35.356Z,0.00
2023-01-22T01:34:05.220Z,0.00
2023-01-22T01:36:48.204Z,0.00
2023-01-22T01:39:18.591Z,0.00
2023-01-22T01:41:49.824Z,0.00
2023-01-22T01:44:21.908Z,0.00
2023-01-22T01:46:55.076Z,0.00
2023-01-22T01:49:30.809Z,0.00
2023-01-22T01:52:03.734Z,0.00
2023-01-22T01:54:33.763Z,0.00
2023-01-22T01:57:06.370Z,0.00
2023-01-22T01:59:35.651Z,0.00
2023-01-22T02:02:06.129Z,0.00
2023-01-22T02:04:34.836Z,0.00
2023-01-22T02:07:08.359Z,0.00
2023-01-22T02:09:42.285Z,0.00
2023-01-22T02:12:11.318Z,0.00
2023-01-22T02:14:43.109Z,0.00
2023-01-22T02:17:14.021Z,0.00
2023-01-22T02:19:43.941Z,0.00
2023-01-22T02:22:20.153Z,0.00
2023-01-22T02:24:48.631Z,0.00
2023-01-22T02:27:16.874Z,0.10
2023-01-22T02:29:45.194Z,0.00
2023-01-22T02:32:14.045Z,0.00
2023-01-22T02:34:42.895Z,0.00
2023-01-22T02:37:11.565Z,0.00
2023-01-22T02:39:41.350Z,0.00
2023-01-22T02:42:10.213Z,0.00
2023-01-22T02:44:38.486Z,0.00
2023-01-22T02:47:07.280Z,0.00
2023-01-22T02:49:45.350Z,0.00
2023-01-22T02:52:13.712Z,0.00
2023-01-22T02:54:43.371Z,0.00
2023-01-22T02:57:11.771Z,0.00
2023-01-22T02:59:40.327Z,0.00
2023-01-22T03:02:12.155Z,0.00
2023-01-22T03:04:41.666Z,0.00
2023-01-22T03:07:10.108Z,0.00
2023-01-22T03:09:38.327Z,0.00
2023-01-22T03:12:08.960Z,0.00
2023-01-22T03:14:54.414Z,0.00
2023-01-22T03:17:40.037Z,0.00
2023-01-22T03:20:27.569Z,0.00
2023-01-22T03:22:55.970Z,0.00
2023-01-22T03:25:24.200Z,0.00
2023-01-22T03:28:16.715Z,0.00
2023-01-22T03:30:44.942Z,0.00
2023-01-22T03:33:13.189Z,0.00
2023-01-22T03:35:42.671Z,0.00
2023-01-22T03:38:10.918Z,0.10
2023-01-22T03:40:39.228Z,0.00
2023-01-22T03:43:09.094Z,0.10
2023-01-22T03:45:37.645Z,0.00
2023-01-22T03:48:06.359Z,0.00
2023-01-22T03:50:36.384Z,0.10
2023-01-22T03:53:05.244Z,0.10
2023-01-22T03:55:33.533Z,0.00
2023-01-22T03:58:01.930Z,0.10
2023-01-22T04:00:31.575Z,0.00
2023-01-22T04:03:02.291Z,0.10
2023-01-22T04:05:30.584Z,0.10
2023-01-22T04:07:58.857Z,0.00
2023-01-22T04:10:27.130Z,0.00
2023-01-22T04:12:55.438Z,0.00
2023-01-22T04:15:23.681Z,0.00
2023-01-22T04:17:53.393Z,0.00
2023-01-22T04:20:21.704Z,0.00
2023-01-22T04:22:50.005Z,0.00
2023-01-22T04:25:18.460Z,0.00
2023-01-22T04:27:47.214Z,0.00
2023-01-22T04:30:17.075Z,0.10
2023-01-22T04:32:45.672Z,0.00
2023-01-22T04:35:15.434Z,0.00
2023-01-22T04:37:43.804Z,0.00
2023-01-22T04:40:13.026Z,0.00
2023-01-22T04:42:41.327Z,0.00
2023-01-22T04:45:10.933Z,0.00
2023-01-22T04:47:42.528Z,0.00
2023-01-22T04:50:18.304Z,0.00
2023-01-22T04:52:46.914Z,0.10
2023-01-22T04:55:15.248Z,0.00
2023-01-22T04:57:43.506Z,0.00
2023-01-22T05:00:13.126Z,0.00
2023-01-22T05:02:41.722Z,0.00
2023-01-22T05:05:10.858Z,0.00
2023-01-22T05:07:40.494Z,0.00
2023-01-22T05:10:09.998Z,0.00
2023-01-22T05:12:42.082Z,0.00
2023-01-22T05:15:23.224Z,0.00
2023-01-22T05:17:52.347Z,0.00
2023-01-22T05:20:21.154Z,0.00
2023-01-22T05:22:50.920Z,0.00
2023-01-22T05:25:19.539Z,0.10
2023-01-22T05:27:47.777Z,0.10
2023-01-22T05:30:16.749Z,0.00
2023-01-22T05:32:45.299Z,0.00
2023-01-22T05:35:13.635Z,0.10
2023-01-22T05:37:41.957Z,0.00
2023-01-22T05:40:13.101Z,0.00
2023-01-22T05:42:41.507Z,0.00
2023-01-22T05:45:10.526Z,0.00
2023-01-22T05:47:38.751Z,0.00
2023-01-22T05:50:07.723Z,0.00
2023-01-22T05:52:40.100Z,0.00
2023-01-22T05:55:09.261Z,0.00
2023-01-22T05:57:38.940Z,0.00
2023-01-22T06:00:09.182Z,0.00
2023-01-22T06:02:37.440Z,0.00
2023-01-22T06:05:08.798Z,0.00
2023-01-22T06:07:37.193Z,0.00
2023-01-22T06:10:05.872Z,0.00
2023-01-22T06:12:34.669Z,0.00
2023-01-22T06:15:04.629Z,0.00
2023-01-22T06:17:32.825Z,0.00
2023-01-22T06:20:01.143Z,-0.10
2023-01-22T06:22:29.592Z,0.00
2023-01-22T06:24:57.924Z,0.00
2023-01-22T06:27:26.244Z,0.00
2023-01-22T06:29:54.744Z,0.00
2023-01-22T06:32:24.427Z,0.00
2023-01-22T06:34:52.708Z,0.00
2023-01-22T06:37:21.891Z,-0.10
2023-01-22T06:39:50.154Z,-0.10
2023-01-22T06:42:18.312Z,-0.10
2023-01-22T06:44:46.646Z,0.00
2023-01-22T06:47:14.891Z,-0.10
2023-01-22T06:49:44.533Z,0.00
2023-01-22T06:52:13.062Z,-0.10
2023-01-22T06:54:41.443Z,-0.10
2023-01-22T06:58:08.397Z,0.00
2023-01-22T07:00:41.407Z,0.00
2023-01-22T07:03:10.400Z,-0.10
2023-01-22T07:05:40.046Z,0.00
2023-01-22T07:08:11.095Z,0.00
2023-01-22T07:10:39.737Z,0.00
2023-01-22T07:13:10.244Z,0.00
2023-01-22T07:15:38.793Z,0.00
2023-01-22T07:18:07.852Z,0.00
2023-01-22T07:20:36.310Z,0.00
2023-01-22T07:23:06.818Z,0.00
2023-01-22T07:25:35.207Z,0.00
2023-01-22T07:28:04.287Z,0.00
2023-01-22T07:30:32.797Z,0.00
2023-01-22T07:33:01.676Z,0.10
2023-01-22T07:35:30.099Z,0.10
2023-01-22T07:38:04.869Z,0.20
2023-01-22T07:40:34.749Z,0.20
2023-01-22T07:43:08.118Z,0.20
2023-01-22T07:45:36.759Z,0.20
2023-01-22T07:48:07.853Z,0.20
2023-01-22T07:50:39.906Z,0.30
2023-01-22T07:53:12.309Z,0.30
2023-01-22T07:56:41.094Z,0.30
2023-01-22T07:59:27.892Z,0.30
2023-01-22T08:01:57.203Z,0.30
2023-01-22T08:04:26.855Z,0.30
2023-01-22T08:06:57.829Z,0.40
2023-01-22T08:09:29.359Z,0.40
2023-01-22T08:11:59.254Z,0.40
2023-01-22T08:14:32.097Z,0.40
2023-01-22T08:17:01.774Z,0.40
2023-01-22T08:29:21.219Z,0.60
2023-01-22T08:31:51.284Z,0.60
2023-01-22T08:34:22.548Z,0.60
2023-01-22T08:43:09.084Z,0.60
2023-01-22T08:45:37.532Z,0.70
2023-01-22T08:48:10.229Z,0.70
2023-01-22T08:50:38.659Z,0.60
2023-01-22T08:53:08.126Z,0.80
2023-01-22T08:55:49.546Z,0.80
2023-01-22T08:58:20.556Z,0.70
2023-01-22T09:00:53.507Z,0.70
2023-01-22T09:03:23.606Z,0.70
2023-01-22T09:05:52.273Z,0.80
2023-01-22T09:08:23.942Z,0.80
2023-01-22T09:10:55.533Z,0.90
2023-01-22T09:13:55.141Z,0.90
2023-01-22T09:22:50.827Z,0.80
2023-01-22T09:25:33.068Z,0.80
2023-01-22T09:34:38.423Z,0.80
2023-01-22T09:37:15.454Z,0.70
2023-01-22T09:39:46.491Z,0.70
2023-01-22T09:48:20.164Z,0.70
2023-01-22T09:50:54.481Z,0.80
2023-01-22T09:53:23.196Z,0.80
2023-01-22T09:55:57.238Z,0.80
2023-01-22T09:58:27.254Z,0.90
2023-01-22T10:01:13.526Z,1.00
2023-01-22T10:03:47.851Z,1.10
2023-01-22T10:06:29.601Z,1.20
2023-01-22T10:09:11.840Z,1.30
2023-01-22T10:11:54.262Z,1.30
2023-01-22T10:14:33.350Z,1.30
2023-01-22T10:17:07.696Z,1.50
2023-01-22T10:19:46.802Z,1.40
2023-01-22T10:23:17.089Z,1.30
2023-01-22T10:29:17.024Z,1.50
2023-01-22T10:31:49.359Z,1.40
2023-01-22T10:37:20.880Z,1.30
2023-01-22T10:39:50.841Z,1.50
2023-01-22T10:42:24.555Z,1.50
2023-01-22T10:45:04.198Z,1.50
2023-01-22T10:47:37.358Z,1.60
2023-01-22T10:50:23.834Z,1.50
2023-01-22T10:52:59.933Z,1.50
2023-01-22T10:55:37.250Z,1.70
2023-01-22T10:58:10.289Z,1.70
2023-01-22T11:00:52.443Z,1.70
2023-01-22T11:03:30.306Z,1.70
2023-01-22T11:06:14.173Z,1.50
2023-01-22T11:08:58.181Z,1.60
2023-01-22T11:11:40.620Z,1.70
2023-01-22T11:14:33.028Z,1.60
2023-01-22T11:24:09.191Z,1.80
2023-01-22T11:27:00.835Z,1.80
2023-01-22T11:30:09.745Z,1.80
2023-01-22T11:33:00.580Z,1.80
2023-01-22T11:35:48.984Z,1.90
2023-01-22T11:38:32.820Z,1.90
2023-01-22T11:41:16.811Z,1.90
2023-01-22T11:44:12.784Z,1.90
2023-01-22T11:46:57.167Z,1.90
2023-01-22T11:49:37.270Z,1.90
2023-01-22T11:52:20.404Z,1.90
2023-01-22T11:55:05.042Z,1.90
2023-01-22T11:57:45.959Z,1.90
2023-01-22T12:00:32.681Z,1.90
2023-01-22T12:03:25.890Z,1.90
2023-01-22T12:06:07.366Z,2.00
2023-01-22T12:09:25.194Z,1.80
2023-01-22T12:12:20.133Z,1.90
2023-01-22T12:15:08.975Z,1.80
2023-01-22T12:17:50.718Z,1.90
2023-01-22T12:20:49.347Z,1.80
2023-01-22T12:23:32.674Z,1.80
2023-01-22T12:26:18.057Z,2.00
2023-01-22T12:29:20.981Z,2.00
2023-01-22T12:35:26.854Z,2.00
2023-01-22T12:38:05.361Z,2.00
2023-01-22T12:40:53.894Z,2.00
2023-01-22T12:43:35.215Z,1.90
2023-01-22T12:46:12.708Z,1.90
2023-01-22T12:48:51.999Z,1.90
2023-01-22T12:51:30.059Z,2.00
2023-01-22T12:54:23.665Z,1.90
2023-01-22T12:56:57.194Z,1.90
2023-01-22T12:59:41.951Z,1.80
2023-01-22T13:02:37.248Z,1.90
2023-01-22T13:05:24.708Z,1.90
2023-01-22T13:08:04.154Z,1.90
2023-01-22T13:10:34.947Z,1.80
2023-01-22T13:13:12.591Z,1.80
2023-01-22T13:15:41.540Z,1.60
2023-01-22T13:18:32.998Z,1.60
2023-01-22T13:21:06.349Z,1.60
2023-01-22T13:23:42.521Z,1.50
2023-01-22T13:26:19.665Z,1.50
2023-01-22T13:28:57.440Z,1.30
2023-01-22T13:31:28.540Z,1.60
2023-01-22T13:34:12.312Z,1.60
2023-01-22T13:36:49.858Z,1.60
2023-01-22T13:39:22.635Z,1.60
2023-01-22T13:41:53.415Z,1.60
2023-01-22T13:44:25.342Z,1.60
2023-01-22T13:46:55.437Z,1.50
2023-01-22T13:49:26.085Z,1.40
2023-01-22T13:51:57.162Z,1.40
2023-01-22T13:54:37.375Z,1.40
2023-01-22T13:57:10.597Z,1.50
2023-01-22T13:59:39.013Z,1.60
2023-01-22T14:02:22.638Z,1.60
2023-01-22T14:04:52.023Z,1.60
2023-01-22T14:07:28.905Z,1.50
2023-01-22T14:10:14.248Z,1.50
2023-01-22T14:12:46.470Z,1.50
2023-01-22T14:15:16.158Z,1.50
2023-01-22T14:17:49.804Z,1.50
2023-01-22T14:20:20.268Z,1.40
2023-01-22T14:22:49.697Z,1.50
2023-01-22T14:25:34.353Z,1.50
2023-01-22T14:28:09.920Z,1.40
2023-01-22T14:30:39.700Z,1.40
2023-01-22T14:33:10.603Z,1.40
2023-01-22T14:35:38.975Z,1.30
2023-01-22T14:38:10.140Z,1.40
2023-01-22T14:40:41.396Z,1.50
2023-01-22T14:43:15.652Z,1.50
2023-01-22T14:45:50.953Z,1.40
2023-01-22T14:48:27.809Z,1.30
2023-01-22T14:51:03.072Z,1.30
2023-01-22T14:53:35.273Z,1.30
2023-01-22T14:56:08.860Z,1.20
2023-01-22T14:58:39.346Z,1.20
2023-01-22T15:01:18.588Z,1.20
2023-01-22T15:03:47.203Z,1.30
2023-01-22T15:06:18.212Z,1.20
2023-01-22T15:08:47.541Z,1.10
2023-01-22T15:11:17.895Z,1.20
2023-01-22T15:13:46.447Z,1.10
2023-01-22T15:16:15.122Z,1.10
2023-01-22T15:18:44.183Z,1.10
2023-01-22T15:21:13.588Z,1.10
2023-01-22T15:23:54.746Z,1.10
2023-01-22T15:26:28.249Z,1.00
2023-01-22T15:29:00.500Z,1.00
2023-01-22T15:31:30.282Z,1.00
2023-01-22T15:34:02.497Z,1.00
2023-01-22T15:36:35.976Z,1.00
2023-01-22T15:39:05.697Z,1.00
2023-01-22T15:41:40.400Z,1.00
2023-01-22T15:44:12.296Z,0.90
2023-01-22T15:46:44.397Z,0.90
2023-01-22T15:49:13.472Z,0.90
2023-01-22T15:51:52.750Z,1.00
2023-01-22T15:54:21.994Z,1.00
2023-01-22T15:56:52.463Z,0.90
2023-01-22T15:59:21.011Z,0.90
2023-01-22T16:02:12.884Z,0.90
2023-01-22T16:04:53.147Z,1.00
2023-01-22T16:07:25.744Z,1.00
2023-01-22T16:10:02.043Z,1.00
2023-01-22T16:12:46.587Z,0.90
2023-01-22T16:15:35.776Z,0.90
2023-01-22T16:21:57.698Z,0.90
2023-01-22T16:24:30.118Z,0.90
2023-01-22T16:27:03.253Z,0.80
2023-01-22T16:29:37.325Z,0.90
2023-01-22T16:32:10.525Z,0.90
2023-01-22T16:34:41.439Z,0.90
2023-01-22T16:37:16.280Z,0.90
2023-01-22T16:43:00.667Z,0.90
2023-01-22T16:45:30.728Z,0.90
2023-01-22T16:47:59.935Z,0.80
2023-01-22T16:50:29.558Z,0.70
2023-01-22T16:52:58.107Z,0.80
2023-01-22T16:55:26.566Z,0.80
2023-01-22T16:57:55.081Z,0.80
2023-01-22T17:00:23.801Z,0.80
2023-01-22T17:02:54.321Z,0.70
2023-01-22T17:05:59.394Z,0.80
2023-01-22T17:08:36.431Z,0.80
2023-01-22T17:11:11.457Z,0.80
2023-01-22T17:20:42.038Z,0.80
2023-01-22T17:23:16.578Z,0.80
2023-01-22T17:25:45.059Z,0.80
2023-01-22T17:28:13.837Z,0.80
2023-01-22T17:30:42.440Z,0.80
2023-01-22T17:33:15.669Z,0.80
2023-01-22T17:35:51.075Z,0.80
2023-01-22T17:38:19.786Z,0.80
2023-01-22T17:40:55.741Z,0.80
2023-01-22T17:43:25.153Z,0.80
2023-01-22T17:45:54.050Z,0.80
2023-01-22T17:48:33.147Z,0.80
2023-01-22T17:51:25.966Z,0.90
2023-01-22T17:56:51.130Z,0.70
2023-01-22T17:59:21.084Z,0.80
2023-01-22T18:01:50.308Z,0.80
2023-01-22T18:04:23.131Z,0.80
2023-01-22T18:06:53.803Z,0.70
2023-01-22T18:09:26.616Z,0.80
2023-01-22T18:11:59.336Z,0.90
2023-01-22T18:14:31.506Z,0.80
2023-01-22T18:17:10.308Z,0.80
2023-01-22T18:19:52.906Z,0.80
2023-01-22T18:22:27.653Z,0.70
2023-01-22T18:25:11.430Z,0.80
2023-01-22T18:27:45.512Z,0.80
2023-01-22T18:30:20.515Z,0.70
2023-01-22T18:32:55.711Z,0.80
2023-01-22T18:35:27.169Z,0.70
2023-01-22T18:40:54.710Z,0.80
2023-01-22T18:43:47.787Z,0.70
2023-01-22T18:46:17.291Z,0.70
2023-01-22T18:49:24.276Z,0.80
2023-01-22T18:52:04.535Z,0.80
2023-01-22T18:54:34.829Z,0.80
2023-01-22T18:57:05.197Z,0.80
2023-01-22T18:59:39.924Z,0.80
2023-01-22T19:02:16.331Z,0.80
2023-01-22T19:04:44.665Z,0.70
2023-01-22T19:07:13.061Z,0.70
2023-01-22T19:09:44.086Z,0.80
2023-01-22T19:12:19.443Z,0.80
2023-01-22T19:14:49.484Z,0.80
2023-01-22T19:17:21.106Z,0.80
2023-01-22T19:19:50.138Z,0.80
2023-01-22T19:26:23.615Z,0.70
2023-01-22T19:28:57.792Z,0.70
2023-01-22T19:31:28.368Z,0.70
2023-01-22T19:33:58.241Z,0.70
2023-01-22T19:36:31.638Z,0.70
2023-01-22T19:39:02.575Z,0.70
2023-01-22T19:41:36.171Z,0.70
2023-01-22T19:44:20.246Z,0.70
2023-01-22T19:46:56.738Z,0.70
2023-01-22T19:49:29.589Z,0.70
2023-01-22T19:51:58.454Z,0.60
2023-01-22T19:54:26.894Z,0.70
2023-01-22T19:56:56.379Z,0.60
2023-01-22T19:59:28.768Z,0.60
2023-01-22T20:01:57.877Z,0.70
2023-01-22T20:04:29.825Z,0.60
2023-01-22T20:07:22.564Z,0.50
2023-01-22T20:10:14.393Z,0.40
2023-01-22T20:12:59.101Z,0.50
2023-01-22T20:15:30.251Z,0.50
2023-01-22T20:18:10.868Z,0.50
2023-01-22T20:20:41.893Z,0.50
2023-01-22T20:23:10.870Z,0.40
2023-01-22T20:25:40.215Z,0.40
2023-01-22T20:28:13.730Z,0.50
2023-01-22T20:30:43.899Z,0.60
2023-01-22T20:33:12.911Z,0.50
2023-01-22T20:35:42.505Z,0.40
2023-01-22T20:38:12.079Z,0.40
2023-01-22T20:40:42.121Z,0.40
2023-01-22T20:43:14.266Z,0.40
2023-01-22T20:45:44.124Z,0.50
2023-01-22T20:48:12.550Z,0.40
2023-01-22T20:50:42.915Z,0.50
2023-01-22T20:53:11.330Z,0.50
2023-01-22T20:55:40.274Z,0.50
2023-01-22T20:58:11.325Z,0.50
2023-01-22T21:00:39.924Z,0.50
2023-01-22T21:03:10.680Z,0.50
2023-01-22T21:05:40.979Z,0.50
2023-01-22T21:08:10.518Z,0.50
2023-01-22T21:10:38.915Z,0.40
2023-01-22T21:13:08.678Z,0.50
2023-01-22T21:15:37.067Z,0.40
2023-01-22T21:18:05.747Z,0.50
2023-01-22T21:20:39.314Z,0.50
2023-01-22T21:23:09.844Z,0.50
2023-01-22T21:25:38.529Z,0.50
2023-01-22T21:28:09.251Z,0.50
2023-01-22T21:30:37.692Z,0.50
2023-01-22T21:33:06.380Z,0.40
2023-01-22T21:35:36.283Z,0.40
2023-01-22T21:38:04.559Z,0.40
2023-01-22T21:40:33.032Z,0.40
2023-01-22T21:43:18.488Z,0.40
2023-01-22T21:46:04.414Z,0.50
2023-01-22T21:48:32.841Z,0.50
2023-01-22T21:51:03.664Z,0.50
2023-01-22T21:53:32.157Z,0.40
2023-01-22T21:56:00.793Z,0.40
2023-01-22T21:58:29.179Z,0.50
2023-01-22T22:01:05.542Z,0.50
2023-01-22T22:03:35.365Z,0.40
2023-01-22T22:06:05.619Z,0.40
2023-01-22T22:08:35.589Z,0.40
2023-01-22T22:11:04.864Z,0.50
2023-01-22T22:13:35.238Z,0.50
2023-01-22T22:16:04.798Z,0.40
2023-01-22T22:18:33.238Z,0.40
2023-01-22T22:21:03.489Z,0.40
2023-01-22T22:23:33.919Z,0.40
2023-01-22T22:26:02.498Z,0.50
2023-01-22T22:28:31.981Z,0.40
2023-01-22T22:31:04.623Z,0.40
2023-01-22T22:33:32.957Z,0.50
2023-01-22T22:36:02.243Z,0.40
2023-01-22T22:38:32.156Z,0.40
2023-01-22T22:41:02.842Z,0.40
2023-01-22T22:43:35.195Z,0.40
2023-01-22T22:46:05.953Z,0.40
2023-01-22T22:48:34.473Z,0.40
2023-01-22T22:51:10.373Z,0.40
2023-01-22T22:53:40.227Z,0.40
2023-01-22T22:56:12.364Z,0.40
2023-01-22T22:58:41.125Z,0.40
2023-01-22T23:01:11.906Z,0.40
2023-01-22T23:03:41.332Z,0.40
2023-01-22T23:06:12.120Z,0.40
2023-01-22T23:08:43.449Z,0.40
2023-01-22T23:11:15.002Z,0.40
2023-01-22T23:13:46.755Z,0.40
2023-01-22T23:16:18.277Z,0.30
2023-01-22T23:18:51.656Z,0.30
2023-01-22T23:21:22.303Z,0.40
2023-01-22T23:23:53.681Z,0.40
2023-01-22T23:26:28.098Z,0.40
2023-01-22T23:28:58.333Z,0.40
2023-01-22T23:31:27.404Z,0.40
2023-01-22T23:33:56.362Z,0.40
2023-01-22T23:36:26.217Z,0.40
2023-01-22T23:38:56.092Z,0.40
2023-01-22T23:41:24.682Z,0.40
2023-01-22T23:43:53.246Z,0.40
2023-01-22T23:46:23.860Z,0.50
2023-01-22T23:48:52.974Z,0.40
2023-01-22T23:51:21.955Z,0.50
2023-01-22T23:53:52.423Z,0.40
2023-01-22T23:56:24.698Z,0.40
2023-01-22T23:58:55.206Z,0.40
